Time;durP1;ratioP1;P1;durP2;ratioP2;P2;SDS_P1;SDS_P2;PMS_P1;PMS_P2;Temp;Humidity;BMP_temperature;BMP_pressure;BME280_temperature;BME280_humidity;BME280_pressure;Samples;Min_cycle;Max_cycle;Signal;HPM_P1;HPM_P2
2024/01/01 00:01:24;;;;;;;5.50;3.80;;;;;;;7.71;58.47;99784.38;4994903;28;97071;-53
2024/01/01 00:03:49;;;;;;;8.37;3.97;;;;;;;7.72;58.42;99777.63;5000418;28;98177;-53
2024/01/01 00:06:15;;;;;;;11.87;5.10;;;;;;;7.72;58.46;99771.38;4996784;28;98532;-52
2024/01/01 00:08:40;;;;;;;7.83;4.97;;;;;;;7.72;58.34;99765.88;4996144;28;97322;-53
2024/01/01 00:11:06;;;;;;;11.23;6.07;;;;;;;7.71;58.61;99767.13;4993287;28;102001;-53
2024/01/01 00:13:31;;;;;;;6.40;5.40;;;;;;;7.70;58.45;99771.88;4997817;28;97852;-53
2024/01/01 00:15:56;;;;;;;10.37;5.93;;;;;;;7.71;58.47;99769.88;4995818;28;113457;-53
2024/01/01 00:18:22;;;;;;;12.37;7.37;;;;;;;7.72;58.29;99772.13;4995469;28;96706;-53
2024/01/01 00:20:47;;;;;;;11.27;6.50;;;;;;;7.71;58.34;99775.38;4995381;28;97151;-53
2024/01/01 00:23:13;;;;;;;11.63;6.50;;;;;;;7.70;58.32;99771.88;4995778;28;97381;-53
2024/01/01 00:25:39;;;;;;;10.07;7.43;;;;;;;7.73;58.32;99775.59;4994886;28;97292;-53
2024/01/01 00:28:06;;;;;;;11.60;7.60;;;;;;;7.73;58.29;99772.84;4995770;28;97345;-53
2024/01/01 00:30:31;;;;;;;8.40;6.60;;;;;;;7.71;58.22;99776.13;4995724;28;96978;-53
2024/01/01 00:32:56;;;;;;;11.37;6.43;;;;;;;7.70;58.47;99779.41;4996134;28;97348;-54
2024/01/01 00:35:22;;;;;;;11.27;8.17;;;;;;;7.68;58.48;99785.41;4993240;28;103567;-53
2024/01/01 00:37:47;;;;;;;12.23;8.37;;;;;;;7.70;58.44;99784.91;4992965;28;97464;-53
2024/01/01 00:40:12;;;;;;;11.90;8.20;;;;;;;7.72;58.33;99785.13;5001171;28;101082;-53
2024/01/01 00:42:38;;;;;;;15.40;7.97;;;;;;;7.76;58.27;99788.34;4996899;28;97204;-53
2024/01/01 00:45:04;;;;;;;11.43;8.47;;;;;;;7.80;58.33;99781.28;4995159;28;97254;-54
2024/01/01 00:47:30;;;;;;;19.07;10.00;;;;;;;7.85;58.25;99788.00;4996919;28;96986;-53
2024/01/01 00:49:57;;;;;;;18.70;9.30;;;;;;;7.88;58.38;99786.94;4996611;28;97954;-53
2024/01/01 00:52:23;;;;;;;15.50;8.83;;;;;;;7.94;58.26;99786.88;4997072;28;98530;-54
2024/01/01 00:54:48;;;;;;;13.20;9.33;;;;;;;7.97;58.32;99786.59;4996148;28;97481;-53
2024/01/01 00:57:13;;;;;;;9.80;7.30;;;;;;;7.99;58.09;99795.06;4995434;28;97234;-53
2024/01/01 00:59:39;;;;;;;9.60;7.33;;;;;;;8.01;58.20;99789.78;4995654;28;98278;-53
2024/01/01 01:02:04;;;;;;;10.07;7.33;;;;;;;8.03;58.11;99795.53;4992964;28;101414;-53
2024/01/01 01:04:29;;;;;;;9.20;6.33;;;;;;;8.03;58.05;99787.25;4992822;28;102930;-53
2024/01/01 01:06:55;;;;;;;9.27;6.20;;;;;;;8.08;58.13;99797.47;4993685;28;96699;-53
2024/01/01 01:09:21;;;;;;;8.43;5.43;;;;;;;8.07;58.04;99800.75;4993317;28;96910;-53
2024/01/01 01:11:46;;;;;;;9.30;5.53;;;;;;;8.04;58.12;99802.53;4994684;28;97419;-53
2024/01/01 01:14:12;;;;;;;5.30;4.43;;;;;;;8.10;58.03;99791.47;4995726;28;96660;-54
2024/01/01 01:16:37;;;;;;;6.23;4.50;;;;;;;8.11;57.98;99804.69;4994907;28;97636;-54
2024/01/01 01:19:02;;;;;;;4.67;4.03;;;;;;;8.10;57.90;99803.19;4993123;28;97045;-53
2024/01/01 01:21:28;;;;;;;6.23;4.50;;;;;;;8.08;57.91;99796.72;4994839;28;97654;-53
2024/01/01 01:23:54;;;;;;;6.67;4.33;;;;;;;8.07;57.94;99801.50;4996129;28;101036;-53
2024/01/01 01:26:19;;;;;;;10.33;4.87;;;;;;;8.08;58.20;99802.97;4995449;28;97022;-53
2024/01/01 01:28:45;;;;;;;6.80;4.10;;;;;;;8.07;57.92;99798.75;4994918;28;96966;-53
2024/01/01 01:31:10;;;;;;;7.07;4.40;;;;;;;8.08;57.86;99800.22;4993196;28;96839;-53
2024/01/01 01:33:35;;;;;;;6.67;3.73;;;;;;;8.07;58.04;99793.25;4994496;28;96796;-53
2024/01/01 01:36:01;;;;;;;7.80;3.70;;;;;;;8.10;57.99;99805.97;4994432;28;97070;-53
2024/01/01 01:38:26;;;;;;;6.33;4.20;;;;;;;8.13;58.25;99799.41;4998299;28;97385;-53
2024/01/01 01:40:54;;;;;;;7.47;3.90;;;;;;;8.14;57.91;99800.88;4997466;28;97394;-53
2024/01/01 01:43:21;;;;;;;3.90;3.40;;;;;;;8.14;57.89;99811.91;4991766;28;97390;-53
2024/01/01 01:45:47;;;;;;;5.07;3.60;;;;;;;8.11;58.08;99804.69;4994873;28;98097;-53
2024/01/01 01:48:14;;;;;;;4.20;3.57;;;;;;;8.14;57.92;99806.41;4995207;28;96712;-54
2024/01/01 01:50:39;;;;;;;6.10;4.10;;;;;;;8.16;57.85;99806.66;4994223;28;97380;-53
2024/01/01 01:53:05;;;;;;;5.50;3.70;;;;;;;8.17;57.98;99818.44;4996792;28;97253;-53
2024/01/01 01:55:30;;;;;;;4.53;3.53;;;;;;;8.17;57.99;99810.16;4992857;28;96668;-53
2024/01/01 01:57:55;;;;;;;5.27;3.70;;;;;;;8.16;57.70;99817.69;4996096;28;96860;-53
2024/01/01 02:00:21;;;;;;;4.80;2.97;;;;;;;8.18;57.99;99817.19;4996965;28;97656;-53
2024/01/01 02:02:47;;;;;;;5.27;3.83;;;;;;;8.19;57.84;99815.91;4994505;28;97608;-53
2024/01/01 02:05:12;;;;;;;7.07;3.40;;;;;;;8.18;57.92;99817.19;4996872;28;97042;-53
2024/01/01 02:07:39;;;;;;;5.43;3.17;;;;;;;8.18;57.73;99814.41;4994976;28;96696;-53
2024/01/01 02:10:05;;;;;;;3.57;3.00;;;;;;;8.20;58.04;99818.16;4992733;28;97510;-53
2024/01/01 02:12:31;;;;;;;3.50;2.83;;;;;;;8.21;57.76;99816.13;4994649;28;97187;-53
2024/01/01 02:14:57;;;;;;;6.43;3.53;;;;;;;8.23;57.92;99819.84;4995984;28;97254;-53
2024/01/01 02:17:22;;;;;;;3.67;3.27;;;;;;;8.24;57.93;99815.84;4994833;28;97132;-53
2024/01/01 02:19:50;;;;;;;3.17;2.90;;;;;;;8.25;57.84;99811.81;4992858;28;105995;-53
2024/01/01 02:22:15;;;;;;;3.43;2.70;;;;;;;8.25;57.70;99817.31;4993239;28;96916;-53
2024/01/01 02:24:40;;;;;;;4.47;2.53;;;;;;;8.24;57.99;99813.09;4993773;28;97017;-53
2024/01/01 02:27:06;;;;;;;4.37;2.90;;;;;;;8.23;57.83;99814.34;4993818;28;98249;-53
2024/01/01 02:29:31;;;;;;;5.57;2.90;;;;;;;8.23;57.80;99808.81;4992126;28;97624;-53
2024/01/01 02:31:56;;;;;;;11.03;3.20;;;;;;;8.22;57.87;99810.09;4992703;28;97087;-53
2024/01/01 02:34:22;;;;;;;5.53;3.03;;;;;;;8.21;57.93;99813.38;4991251;28;97471;-53
2024/01/01 02:36:47;;;;;;;5.10;2.40;;;;;;;8.20;57.88;99815.41;4996211;28;97114;-53
2024/01/01 02:39:12;;;;;;;5.73;3.23;;;;;;;8.22;57.84;99815.63;4990589;28;98630;-53
2024/01/01 02:41:39;;;;;;;2.77;2.30;;;;;;;8.23;57.86;99817.09;4992633;28;104851;-53
2024/01/01 02:44:05;;;;;;;2.90;2.30;;;;;;;8.23;57.82;99811.56;4989766;28;97142;-53
2024/01/01 02:46:30;;;;;;;4.07;2.57;;;;;;;8.22;58.10;99812.09;4991129;28;96771;-53
2024/01/01 02:48:56;;;;;;;4.30;2.43;;;;;;;8.21;57.98;99813.38;4993989;28;104916;-53
2024/01/01 02:51:21;;;;;;;4.23;2.50;;;;;;;8.13;57.85;99810.44;4992102;28;97926;-53
2024/01/01 02:53:47;;;;;;;2.47;2.27;;;;;;;8.18;58.04;99817.94;4993655;28;96637;-53
2024/01/01 02:56:19;;;;;;;4.90;2.07;;;;;;;8.19;57.97;99821.41;4993245;28;96755;-53
2024/01/01 02:58:46;;;;;;;2.20;1.70;;;;;;;8.18;57.83;99812.41;4994707;28;96967;-53
2024/01/01 03:01:11;;;;;;;3.03;2.50;;;;;;;8.17;57.98;99818.44;4991270;28;98615;-53
2024/01/01 03:03:36;;;;;;;4.30;2.60;;;;;;;8.17;57.96;99812.91;4990670;28;96687;-53
2024/01/01 03:06:03;;;;;;;3.77;2.47;;;;;;;8.17;58.15;99819.19;4994371;28;97750;-53
2024/01/01 03:08:28;;;;;;;3.57;2.70;;;;;;;8.15;57.95;99818.94;4993470;28;97758;-53
2024/01/01 03:10:53;;;;;;;3.33;1.80;;;;;;;8.13;58.05;99813.19;4991159;28;107350;-52
2024/01/01 03:13:19;;;;;;;4.20;2.00;;;;;;;8.12;57.81;99819.22;4988003;28;97192;-53
2024/01/01 03:15:44;;;;;;;6.70;2.50;;;;;;;8.08;57.91;99819.50;4992982;28;96902;-53
2024/01/01 03:18:11;;;;;;;3.67;2.57;;;;;;;8.07;58.15;99811.78;4992296;28;96996;-53
2024/01/01 03:20:37;;;;;;;3.20;2.27;;;;;;;8.02;58.06;99807.81;4991841;28;97273;-53
2024/01/01 03:23:03;;;;;;;2.30;2.10;;;;;;;7.99;58.29;99811.59;4992147;28;97081;-53
2024/01/01 03:25:28;;;;;;;2.67;2.10;;;;;;;8.01;58.18;99797.31;4995701;28;97036;-53
2024/01/01 03:27:55;;;;;;;4.70;2.70;;;;;;;7.99;58.14;99799.84;4993170;28;108135;-53
2024/01/01 03:30:21;;;;;;;3.30;2.10;;;;;;;7.99;58.33;99806.09;4993893;28;97171;-53
2024/01/01 03:32:47;;;;;;;5.00;2.30;;;;;;;7.98;58.18;99801.84;4992358;28;97295;-53
2024/01/01 03:35:12;;;;;;;2.30;1.73;;;;;;;7.98;58.24;99798.34;4992008;28;96757;-53
2024/01/01 03:37:38;;;;;;;7.43;2.50;;;;;;;7.94;58.14;99804.16;4989559;28;98575;-53
2024/01/01 03:40:03;;;;;;;3.73;2.00;;;;;;;7.95;58.32;99799.38;4994590;28;97106;-53
2024/01/01 03:42:29;;;;;;;2.80;2.23;;;;;;;7.94;58.31;99804.16;4994115;28;97063;-53
2024/01/01 03:44:54;;;;;;;5.87;2.37;;;;;;;7.95;58.38;99794.63;4991407;28;96647;-53
2024/01/01 03:47:20;;;;;;;4.30;2.20;;;;;;;7.95;58.25;99794.63;4992650;28;97106;-53
2024/01/01 03:49:45;;;;;;;3.90;1.87;;;;;;;7.94;58.29;99798.66;4992765;28;97187;-53
2024/01/01 03:52:10;;;;;;;4.37;1.97;;;;;;;7.93;58.23;99797.16;4992430;28;98056;-53
2024/01/01 03:54:36;;;;;;;3.43;1.83;;;;;;;7.90;58.13;99795.41;4994859;28;97078;-53
2024/01/01 03:57:01;;;;;;;2.20;1.57;;;;;;;7.93;58.12;99801.91;4993965;28;98067;-53
2024/01/01 03:59:26;;;;;;;3.03;2.20;;;;;;;7.90;58.19;99800.94;4995472;28;96746;-53
2024/01/01 04:01:52;;;;;;;9.13;2.10;;;;;;;7.92;58.33;99805.94;4994620;28;100591;-53
2024/01/01 04:04:17;;;;;;;8.07;1.77;;;;;;;7.91;57.97;99799.69;4995044;28;97091;-53
2024/01/01 04:06:43;;;;;;;4.50;2.10;;;;;;;7.94;58.21;99803.41;4992930;28;98726;-53
2024/01/01 04:09:08;;;;;;;3.60;2.30;;;;;;;7.95;58.14;99802.88;4992581;28;97089;-53
2024/01/01 04:11:33;;;;;;;4.27;2.27;;;;;;;7.96;58.05;99807.13;4992674;28;97800;-53
2024/01/01 04:13:59;;;;;;;2.10;1.80;;;;;;;7.98;58.00;99807.38;4995999;28;96947;-54
2024/01/01 04:16:25;;;;;;;3.90;2.00;;;;;;;8.00;58.10;99804.84;4994708;28;97956;-54
2024/01/01 04:18:51;;;;;;;2.10;1.43;;;;;;;8.01;58.09;99803.56;4992824;28;97709;-53
2024/01/01 04:21:16;;;;;;;3.07;2.13;;;;;;;8.03;58.01;99806.53;4997475;28;97459;-53
2024/01/01 04:23:42;;;;;;;9.63;2.73;;;;;;;8.05;58.05;99808.78;4999908;28;97661;-53
2024/01/01 04:26:07;;;;;;;4.10;2.03;;;;;;;8.03;58.13;99803.78;4993196;28;100882;-53
2024/01/01 04:28:32;;;;;;;2.77;1.70;;;;;;;8.03;57.95;99792.75;4996218;28;96676;-53
2024/01/01 04:30:58;;;;;;;3.73;1.93;;;;;;;8.02;58.10;99790.53;4993679;28;98727;-53
2024/01/01 04:33:23;;;;;;;2.33;1.63;;;;;;;8.03;58.05;99794.78;4997793;28;97958;-53
2024/01/01 04:35:48;;;;;;;1.93;1.70;;;;;;;8.05;58.05;99787.50;4994238;28;97348;-54
2024/01/01 04:38:14;;;;;;;2.70;2.00;;;;;;;8.03;57.92;99779.00;4994551;28;99167;-53
2024/01/01 04:40:39;;;;;;;4.33;2.10;;;;;;;8.05;58.00;99782.00;4995014;28;96814;-53
2024/01/01 04:43:04;;;;;;;2.87;1.80;;;;;;;8.06;57.74;99788.22;4994688;28;97089;-53
2024/01/01 04:45:35;;;;;;;2.53;1.90;;;;;;;8.03;57.79;99784.50;4993894;28;101164;-54
2024/01/01 04:48:01;;;;;;;2.23;1.87;;;;;;;8.05;57.85;99776.47;4993184;28;97183;-54
2024/01/01 04:50:26;;;;;;;2.30;2.13;;;;;;;8.08;57.88;99780.19;5002838;28;96987;-53
2024/01/01 04:52:51;;;;;;;3.57;1.60;;;;;;;8.06;57.69;99771.69;4993165;28;98998;-53
2024/01/01 04:55:16;;;;;;;5.30;2.30;;;;;;;8.07;57.62;99778.72;4997938;28;105577;-53
2024/01/01 04:57:42;;;;;;;3.80;2.10;;;;;;;8.04;57.70;99768.72;4993086;28;107729;-53
2024/01/01 05:00:08;;;;;;;5.90;2.33;;;;;;;8.05;57.68;99775.72;4992897;28;97159;-54
2024/01/01 05:02:33;;;;;;;2.70;1.80;;;;;;;8.07;57.57;99773.19;4995216;28;96618;-53
2024/01/01 05:04:58;;;;;;;2.77;1.63;;;;;;;8.07;57.71;99779.47;4993962;28;97186;-54
2024/01/01 05:07:24;;;;;;;7.47;2.00;;;;;;;8.10;57.77;99780.44;4993520;28;97639;-53
2024/01/01 05:09:49;;;;;;;3.57;2.00;;;;;;;8.09;57.59;99776.19;4996195;28;96919;-53
2024/01/01 05:12:16;;;;;;;6.10;1.90;;;;;;;8.09;57.66;99782.44;4994218;28;97044;-53
2024/01/01 05:14:41;;;;;;;2.93;1.97;;;;;;;8.09;57.68;99778.94;4998239;28;98622;-53
2024/01/01 05:17:07;;;;;;;3.30;2.00;;;;;;;8.09;57.65;99774.19;4996708;28;97088;-53
2024/01/01 05:19:32;;;;;;;2.07;1.97;;;;;;;8.11;57.64;99779.91;4992472;28;96982;-53
2024/01/01 05:21:58;;;;;;;6.10;1.80;;;;;;;8.10;57.69;99772.91;4992040;28;97511;-53
2024/01/01 05:24:23;;;;;;;2.00;1.70;;;;;;;8.09;57.63;99771.41;4996806;28;97120;-53
2024/01/01 05:26:48;;;;;;;3.90;2.57;;;;;;;8.07;57.58;99771.19;4996069;28;98599;-53
2024/01/01 05:29:13;;;;;;;3.13;1.63;;;;;;;8.09;57.63;99767.91;4994385;28;97018;-53
2024/01/01 05:31:39;;;;;;;2.97;1.70;;;;;;;8.10;57.69;99775.66;4993569;28;97017;-53
2024/01/01 05:34:05;;;;;;;5.27;2.10;;;;;;;8.10;57.57;99781.16;4996302;28;107921;-53
2024/01/01 05:36:30;;;;;;;3.17;2.10;;;;;;;8.08;57.29;99785.69;4994263;28;97102;-53
2024/01/01 05:38:55;;;;;;;7.53;1.90;;;;;;;8.10;57.33;99785.94;4991848;28;96670;-53
2024/01/01 05:41:21;;;;;;;2.77;1.70;;;;;;;8.08;57.20;99786.44;4992733;28;96673;-53
2024/01/01 05:43:46;;;;;;;3.50;2.33;;;;;;;8.09;57.55;99787.19;4991862;28;98506;-53
2024/01/01 05:46:12;;;;;;;5.37;1.73;;;;;;;8.09;57.43;99798.97;4993986;28;97802;-53
2024/01/01 05:48:37;;;;;;;3.90;1.70;;;;;;;8.08;57.45;99805.72;4994210;28;97057;-53
2024/01/01 05:51:03;;;;;;;1.87;1.67;;;;;;;8.08;57.38;99808.50;4996924;28;97260;-53
2024/01/01 05:53:28;;;;;;;3.63;2.00;;;;;;;8.05;57.36;99809.53;4997303;28;96652;-53
2024/01/01 05:55:53;;;;;;;3.80;1.90;;;;;;;7.94;57.68;99823.44;4995500;28;97310;-53
2024/01/01 05:58:19;;;;;;;7.73;1.80;;;;;;;7.89;57.87;99821.47;4996531;28;99326;-54
2024/01/01 06:00:45;;;;;;;4.47;1.63;;;;;;;7.78;58.08;99827.13;4995583;28;97122;-53
2024/01/01 06:03:10;;;;;;;2.17;1.70;;;;;;;7.76;58.20;99835.16;4992558;28;97650;-54
2024/01/01 06:05:35;;;;;;;3.47;1.53;;;;;;;7.72;58.24;99832.69;4996325;28;98291;-53
2024/01/01 06:08:04;;;;;;;4.50;1.57;;;;;;;7.75;58.40;99839.16;4995341;28;96903;-53
2024/01/01 06:10:31;;;;;;;3.43;1.73;;;;;;;7.75;58.18;99836.41;4992167;28;96791;-53
2024/01/01 06:12:57;;;;;;;4.80;1.60;;;;;;;7.74;58.28;99834.91;4994563;28;97679;-53
2024/01/01 06:15:23;;;;;;;4.50;1.70;;;;;;;7.75;58.33;99841.91;4993889;28;96875;-53
2024/01/01 06:17:50;;;;;;;3.37;1.17;;;;;;;7.75;58.35;99839.16;4993560;28;97052;-54
2024/01/01 06:20:15;;;;;;;4.10;1.33;;;;;;;7.71;58.44;99842.19;4993258;28;97176;-53
2024/01/01 06:22:41;;;;;;;2.87;1.43;;;;;;;7.70;58.53;99843.44;4993836;28;96599;-54
2024/01/01 06:25:08;;;;;;;3.87;1.33;;;;;;;7.71;58.36;99846.94;4994895;28;97233;-53
2024/01/01 06:27:33;;;;;;;7.10;1.27;;;;;;;7.70;58.36;99839.97;4996308;28;97097;-54
2024/01/01 06:29:59;;;;;;;3.00;1.10;;;;;;;7.68;58.45;99845.25;4995834;28;97293;-53
2024/01/01 06:32:24;;;;;;;2.97;1.23;;;;;;;7.67;58.42;99839.00;4993283;28;97104;-53
2024/01/01 06:34:49;;;;;;;2.40;1.00;;;;;;;7.64;58.62;99836.50;4991361;28;100849;-53
2024/01/01 06:37:15;;;;;;;2.77;1.30;;;;;;;7.63;58.64;99837.78;4993066;28;96739;-53
2024/01/01 06:39:40;;;;;;;2.30;1.17;;;;;;;7.66;58.70;99834.00;4991964;28;97101;-53
2024/01/01 06:42:05;;;;;;;2.70;1.33;;;;;;;7.68;58.52;99839.75;4990865;28;96771;-53
2024/01/01 06:44:31;;;;;;;1.20;0.93;;;;;;;7.70;58.50;99837.94;4997742;28;97434;-53
2024/01/01 06:46:56;;;;;;;2.03;1.20;;;;;;;7.74;58.50;99843.19;4992707;28;97341;-53
2024/01/01 06:49:22;;;;;;;3.13;1.30;;;;;;;7.75;58.33;99841.91;4993568;28;97494;-53
2024/01/01 06:51:50;;;;;;;1.83;1.13;;;;;;;7.72;58.52;99842.94;4994720;28;97431;-53
2024/01/01 06:54:17;;;;;;;2.13;0.97;;;;;;;7.74;58.52;99845.94;4992375;28;97731;-53
2024/01/01 06:56:43;;;;;;;2.90;1.00;;;;;;;7.73;58.49;99850.69;4992243;28;97034;-53
2024/01/01 06:59:12;;;;;;;2.73;1.27;;;;;;;7.72;58.55;99864.97;4992789;28;97114;-53
2024/01/01 07:01:37;;;;;;;0.93;0.83;;;;;;;7.69;58.56;99861.25;4992035;28;98566;-53
2024/01/01 07:04:03;;;;;;;6.20;1.43;;;;;;;7.71;58.60;99880.00;4993143;28;97265;-53
2024/01/01 07:06:28;;;;;;;4.00;1.33;;;;;;;7.68;58.70;99872.78;4996112;28;97105;-53
2024/01/01 07:08:53;;;;;;;3.73;1.20;;;;;;;7.62;58.61;99870.06;4998045;28;96748;-53
2024/01/01 07:11:19;;;;;;;5.20;0.87;;;;;;;7.59;58.78;99868.34;4995566;28;97450;-53
2024/01/01 07:13:44;;;;;;;0.90;0.70;;;;;;;7.59;58.72;99862.84;4993810;28;98462;-53
2024/01/01 07:16:09;;;;;;;2.43;1.10;;;;;;;7.54;58.88;99871.13;4992259;28;99146;-53
2024/01/01 07:18:35;;;;;;;2.50;0.90;;;;;;;7.50;58.96;99876.19;4994034;28;97460;-53
2024/01/01 07:21:00;;;;;;;1.83;0.70;;;;;;;7.47;59.13;99880.72;4991460;28;97286;-53
2024/01/01 07:23:26;;;;;;;2.23;1.10;;;;;;;7.44;59.22;99884.47;4994675;28;98913;-53
2024/01/01 07:25:51;;;;;;;0.70;0.60;;;;;;;7.45;59.42;99882.47;4994862;28;97119;-53
2024/01/01 07:28:17;;;;;;;2.00;0.80;;;;;;;7.43;59.35;99890.50;4994556;28;97969;-53
2024/01/01 07:30:42;;;;;;;2.80;1.00;;;;;;;7.45;59.49;99882.47;4993786;28;97596;-53
2024/01/01 07:33:07;;;;;;;3.57;1.20;;;;;;;7.45;59.28;99883.22;4992795;28;99666;-53
2024/01/01 07:35:33;;;;;;;1.40;0.90;;;;;;;7.44;59.32;99894.75;4989973;28;96915;-53
2024/01/01 07:37:58;;;;;;;1.07;0.77;;;;;;;7.45;59.47;99890.72;4991268;28;97322;-53
2024/01/01 07:40:24;;;;;;;4.67;1.03;;;;;;;7.45;59.62;99893.47;4991159;28;97650;-53
2024/01/01 07:42:49;;;;;;;1.87;0.80;;;;;;;7.40;59.62;99895.03;4993685;28;97633;-53
2024/01/01 07:45:15;;;;;;;1.07;0.70;;;;;;;7.38;59.76;99897.53;4991615;28;99839;-53
2024/01/01 07:47:40;;;;;;;2.70;1.27;;;;;;;7.41;59.94;99895.78;4993494;28;96796;-53
2024/01/01 07:50:07;;;;;;;2.00;0.80;;;;;;;7.41;59.81;99898.53;4995401;28;97174;-53
2024/01/01 07:52:32;;;;;;;3.80;0.77;;;;;;;7.38;59.94;99894.78;4998586;28;97194;-53
2024/01/01 07:54:58;;;;;;;1.73;0.90;;;;;;;7.33;60.02;99892.84;4998899;28;97164;-53
2024/01/01 07:57:26;;;;;;;3.00;0.80;;;;;;;7.38;60.04;99896.78;4996136;28;96930;-53
2024/01/01 07:59:55;;;;;;;1.90;0.77;;;;;;;7.39;60.07;99895.53;4999581;28;103580;-53
2024/01/01 08:02:20;;;;;;;2.37;1.30;;;;;;;7.37;60.20;99906.31;4996867;28;97638;-53
2024/01/01 08:04:46;;;;;;;3.13;1.20;;;;;;;7.35;60.26;99903.31;4996708;28;96719;-53
2024/01/01 08:07:11;;;;;;;6.97;1.33;;;;;;;7.35;60.21;99904.09;4995788;28;97272;-53
2024/01/01 08:09:37;;;;;;;4.17;1.60;;;;;;;7.41;60.38;99904.03;4998617;28;97365;-53
2024/01/01 08:12:02;;;;;;;2.33;1.20;;;;;;;7.43;60.26;99912.50;4999802;28;108005;-53
2024/01/01 08:14:27;;;;;;;3.53;1.00;;;;;;;7.46;60.32;99908.75;4998591;28;96617;-53
2024/01/01 08:16:53;;;;;;;2.23;1.20;;;;;;;7.44;60.28;99914.03;4995650;28;96589;-53
2024/01/01 08:19:18;;;;;;;3.50;1.13;;;;;;;7.44;60.45;99911.28;4997605;28;106251;-53
2024/01/01 08:21:43;;;;;;;1.83;1.00;;;;;;;7.42;60.40;99902.78;4996315;28;96928;-53
2024/01/01 08:24:08;;;;;;;2.10;1.20;;;;;;;7.40;60.56;99906.03;4992351;28;97085;-53
2024/01/01 08:26:34;;;;;;;2.40;0.80;;;;;;;7.39;60.62;99901.03;4994270;28;96647;-53
2024/01/01 08:28:59;;;;;;;1.80;0.83;;;;;;;7.38;60.56;99902.28;4996462;28;97311;-53
2024/01/01 08:31:24;;;;;;;1.67;0.90;;;;;;;7.36;60.66;99900.06;4992358;28;109735;-53
2024/01/01 08:33:50;;;;;;;5.37;1.00;;;;;;;7.38;60.80;99905.03;4995199;28;97887;-53
2024/01/01 08:36:15;;;;;;;4.03;1.40;;;;;;;7.39;60.87;99895.53;4998086;28;97047;-53
2024/01/01 08:38:41;;;;;;;2.50;1.00;;;;;;;7.39;60.87;99901.03;4994656;28;98555;-53
2024/01/01 08:41:06;;;;;;;3.33;1.37;;;;;;;7.36;60.91;99897.31;4999070;28;97838;-53
2024/01/01 08:43:32;;;;;;;4.33;1.20;;;;;;;7.35;61.04;99904.09;4999256;28;97378;-53
2024/01/01 08:46:00;;;;;;;2.83;0.90;;;;;;;7.37;61.01;99914.56;4996580;28;97438;-53
2024/01/01 08:48:25;;;;;;;3.27;1.07;;;;;;;7.37;60.96;99912.56;4992201;28;97039;-53
2024/01/01 08:50:50;;;;;;;2.07;0.70;;;;;;;7.35;61.10;99908.84;4993356;28;96931;-53
2024/01/01 08:53:16;;;;;;;3.33;1.03;;;;;;;7.33;61.16;99911.34;4995003;28;97705;-53
2024/01/01 08:55:41;;;;;;;7.30;1.73;;;;;;;7.37;61.11;99920.06;4995150;28;96699;-53
2024/01/01 08:58:06;;;;;;;4.67;1.00;;;;;;;7.36;61.05;99924.06;4999278;28;97378;-53
2024/01/01 09:00:32;;;;;;;1.60;1.00;;;;;;;7.35;61.25;99917.09;4995742;28;97414;-53
2024/01/01 09:02:58;;;;;;;6.37;1.23;;;;;;;7.33;61.34;99923.09;4998092;28;96954;-53
2024/01/01 09:05:23;;;;;;;3.90;1.30;;;;;;;7.34;61.41;99913.59;4996612;28;97247;-53
2024/01/01 09:07:49;;;;;;;3.77;0.90;;;;;;;7.34;61.24;99921.09;4994903;28;98521;-53
2024/01/01 09:10:15;;;;;;;1.73;0.83;;;;;;;7.34;61.45;99921.09;4994903;28;97177;-53
2024/01/01 09:12:41;;;;;;;1.80;0.80;;;;;;;7.37;61.52;99917.31;4993748;28;96977;-53
2024/01/01 09:15:07;;;;;;;5.00;1.23;;;;;;;7.43;61.36;99918.03;4995463;28;96975;-53
2024/01/01 09:17:32;;;;;;;1.50;1.00;;;;;;;7.47;61.25;99918.47;4995816;28;97288;-53
2024/01/01 09:19:57;;;;;;;1.97;0.93;;;;;;;7.46;61.23;99922.50;4996280;28;103838;-53
2024/01/01 09:22:22;;;;;;;2.80;1.00;;;;;;;7.46;61.34;99926.00;4992942;28;96706;-53
2024/01/01 09:24:48;;;;;;;1.53;1.07;;;;;;;7.48;61.26;99931.00;4993526;28;96962;-53
2024/01/01 09:27:14;;;;;;;2.40;0.90;;;;;;;7.48;61.30;99939.25;4995667;28;99219;-53
2024/01/01 09:29:39;;;;;;;4.20;1.30;;;;;;;7.45;61.27;99930.00;4995564;28;96801;-53
2024/01/01 09:32:05;;;;;;;4.97;1.27;;;;;;;7.48;61.34;99936.50;4996108;28;100633;-53
2024/01/01 09:34:30;;;;;;;5.40;1.20;;;;;;;7.46;61.18;99939.78;4995126;28;99258;-53
2024/01/01 09:36:55;;;;;;;4.33;1.13;;;;;;;7.47;61.12;99952.25;4998749;28;97664;-53
2024/01/01 09:39:21;;;;;;;4.20;0.90;;;;;;;7.49;61.45;99947.00;4996385;28;105160;-53
2024/01/01 09:41:46;;;;;;;3.37;1.40;;;;;;;7.48;61.14;99955.75;4996928;28;97125;-53
2024/01/01 09:44:12;;;;;;;4.70;1.50;;;;;;;7.50;61.37;99951.25;4992210;28;97010;-53
2024/01/01 09:46:39;;;;;;;5.50;1.20;;;;;;;7.55;61.26;99955.22;4995317;28;97625;-53
2024/01/01 09:49:04;;;;;;;1.97;1.00;;;;;;;7.52;61.17;99956.22;4993576;28;97361;-53
2024/01/01 09:51:30;;;;;;;3.97;1.13;;;;;;;7.56;61.29;99962.97;4993459;28;97206;-54
2024/01/01 09:53:55;;;;;;;5.70;1.07;;;;;;;7.63;61.27;99967.16;4996675;28;96644;-53
2024/01/01 09:56:21;;;;;;;3.60;1.00;;;;;;;7.64;61.04;99958.38;4992994;28;98748;-53
2024/01/01 09:58:46;;;;;;;6.10;1.43;;;;;;;7.63;61.18;99958.91;4994789;28;97250;-53
2024/01/01 10:01:15;;;;;;;4.80;1.20;;;;;;;7.58;61.20;99954.94;4995750;28;97514;-53
2024/01/01 10:03:41;;;;;;;4.93;1.20;;;;;;;7.63;61.17;99959.66;4992437;28;96671;-53
2024/01/01 10:06:11;;;;;;;4.10;1.40;;;;;;;7.68;61.20;99963.63;4994857;28;97060;-53
2024/01/01 10:08:38;;;;;;;4.27;1.37;;;;;;;7.73;61.08;99962.81;4993022;28;97122;-53
2024/01/01 10:11:18;;;;;;;2.93;1.40;;;;;;;7.79;61.05;99958.03;4994069;28;97015;-54
2024/01/01 10:13:44;;;;;;;5.30;1.33;;;;;;;7.77;61.06;99961.28;4994319;28;97116;-53
2024/01/01 10:16:09;;;;;;;4.40;1.53;;;;;;;7.80;60.99;99959.50;4993894;28;97221;-53
2024/01/01 10:18:35;;;;;;;7.53;1.47;;;;;;;7.83;60.93;99961.25;4995395;28;97066;-54
2024/01/01 10:21:12;;;;;;;5.23;1.23;;;;;;;7.83;60.76;99959.22;4997751;28;97046;-54
2024/01/01 10:23:38;;;;;;;3.03;0.97;;;;;;;7.88;60.75;99965.94;4996123;28;96768;-54
2024/01/01 10:26:04;;;;;;;5.40;1.10;;;;;;;7.89;60.83;99972.94;4985152;28;97393;-54
2024/01/01 10:28:31;;;;;;;2.53;1.03;;;;;;;7.92;60.69;99965.66;4991416;28;98449;-54
2024/01/01 10:30:57;;;;;;;6.33;1.47;;;;;;;7.94;60.76;99963.91;4995916;28;96752;-54
2024/01/01 10:33:25;;;;;;;4.10;1.33;;;;;;;7.95;60.80;99970.88;4991940;28;97176;-53
2024/01/01 10:35:52;;;;;;;7.00;1.47;;;;;;;7.98;60.61;99967.13;4994847;28;97319;-53
2024/01/01 10:38:19;;;;;;;4.87;1.30;;;;;;;8.00;60.65;99967.34;4993825;28;96745;-53
2024/01/01 10:40:46;;;;;;;3.10;1.23;;;;;;;7.98;60.41;99963.59;4995376;28;96647;-55
2024/01/01 10:43:12;;;;;;;3.07;1.33;;;;;;;7.98;60.50;99969.88;4994678;28;96773;-54
2024/01/01 10:45:39;;;;;;;5.37;1.60;;;;;;;7.97;60.53;99978.63;4993762;28;97595;-54
2024/01/01 10:48:06;;;;;;;4.83;1.90;;;;;;;7.96;60.51;99971.63;4992313;28;97393;-54
2024/01/01 10:50:35;;;;;;;4.47;1.33;;;;;;;7.95;60.44;99979.16;4994893;28;97203;-54
2024/01/01 10:53:55;;;;;;;3.63;1.67;;;;;;;7.90;60.22;99981.97;4993446;28;96746;-54
2024/01/01 10:56:39;;;;;;;3.53;1.27;;;;;;;7.92;60.27;99982.94;4999862;28;100333;-54
2024/01/01 10:59:20;;;;;;;3.80;1.30;;;;;;;7.93;59.94;99978.16;4994855;28;96682;-53
2024/01/01 11:01:50;;;;;;;4.73;1.50;;;;;;;7.96;60.46;99977.16;4993318;28;97050;-53
2024/01/01 11:04:20;;;;;;;4.10;1.23;;;;;;;7.94;60.24;99974.91;4993762;28;98482;-53
2024/01/01 11:06:46;;;;;;;2.00;1.20;;;;;;;7.94;60.14;99980.44;4994471;28;97191;-53
2024/01/01 11:09:20;;;;;;;2.50;1.20;;;;;;;7.94;60.25;99971.41;4993357;28;97219;-54
2024/01/01 11:11:47;;;;;;;8.73;1.63;;;;;;;7.97;60.23;99984.88;4995500;28;96821;-53
2024/01/01 11:14:34;;;;;;;5.10;2.00;;;;;;;7.98;59.80;99975.38;4994341;28;97056;-54
2024/01/01 11:17:02;;;;;;;3.77;1.63;;;;;;;7.98;60.03;99983.63;4996340;28;97140;-54
2024/01/01 11:19:41;;;;;;;5.80;1.57;;;;;;;7.98;60.19;99980.88;4990735;28;97049;-54
2024/01/01 11:22:18;;;;;;;1.97;1.63;;;;;;;7.99;60.14;99976.84;4995423;28;97171;-54
2024/01/01 11:24:45;;;;;;;2.70;1.37;;;;;;;7.99;60.11;99978.88;4992968;28;96684;-54
2024/01/01 11:27:23;;;;;;;2.37;1.50;;;;;;;8.00;59.65;99986.63;4991778;28;97301;-54
2024/01/01 11:29:49;;;;;;;2.53;1.33;;;;;;;7.98;60.04;99975.38;4994085;28;97222;-54
2024/01/01 11:32:17;;;;;;;2.67;1.10;;;;;;;7.99;60.00;99990.63;4991849;28;96788;-54
2024/01/01 11:34:43;;;;;;;6.50;1.40;;;;;;;8.03;60.04;99982.81;4993501;28;97086;-53
2024/01/01 11:37:08;;;;;;;2.73;1.47;;;;;;;8.07;59.86;99988.06;4990858;28;97524;-54